Hlavní strana
METAR-TAF:

METAR-TAF

Letiště :

São Gabriel da Cachoeira, Amazonas, Brazílie

zeměpisná šířka: 00-08S, zeměpisná délka: 067-05W, výška: 90 m

Aktuální stav počasí

Zpráva byla vytvořena před 13 hodinami a 2 minutami, v 19:00 UTC
Východojihovýchodní vítr 3 kt
Teplota 28°C
Vlhkost vzduchu 79%
Tlak 1011 hPa
Viditelnost 10 km a více
Polojasno ve výšce 2000 ft
Oblačno až skoro zataženo ve výšce 10000 ft

METAR: SBUA 271900Z 12003KT 9999 SCT020 BKN100 28/24 Q1011

Čas: 04:02 (08:02 UTC)


TAF: chybějící

Stav a předpovědi počasí z více než 4 000 letišť (zprávy METAR a TAF).

Červené a žluté tečky na mapě představují dostupné meteorologické stanice.

Když kurzor umístíte na tečku, zobrazí se název stanice.

Pak kliknutím zobrazíte stav a předpověď počasí.

Chcete-li změnit mapu, kliknutím na zelené tlačítko se znaménkem +mapu přiblížíte, kliknutím na zelené tlačítko se znaménkem – mapu oddálíte a kliknutím na zelené šipky přejdete na sousední mapy.


METAR-TAF: